Time;durP1;ratioP1;P1;durP2;ratioP2;P2;SDS_P1;SDS_P2;PMS_P1;PMS_P2;Temp;Humidity;BMP_temperature;BMP_pressure;BME280_temperature;BME280_humidity;BME280_pressure;Samples;Min_cycle;Max_cycle;Signal;HPM_P1;HPM_P2
2023/03/01 00:01:27;;;;;;;17.17;8.60;;;-2.90;99.90;;;;;;5075370;28;20048;-61
2023/03/01 00:03:54;;;;;;;21.95;9.13;;;-2.90;99.90;;;;;;5077413;28;20671;-57
2023/03/01 00:06:20;;;;;;;16.98;9.55;;;-3.00;99.90;;;;;;5075497;28;20094;-64
2023/03/01 00:08:47;;;;;;;16.25;9.30;;;-3.00;99.90;;;;;;5077377;28;20105;-62
2023/03/01 00:11:19;;;;;;;20.98;10.40;;;-3.00;99.90;;;;;;5076289;28;20032;-61
2023/03/01 00:13:46;;;;;;;20.08;9.57;;;-3.00;99.90;;;;;;5076204;28;20268;-63
2023/03/01 00:16:15;;;;;;;17.83;9.90;;;-3.10;99.90;;;;;;5079952;28;20040;-63
2023/03/01 00:18:40;;;;;;;18.52;9.68;;;-3.00;99.90;;;;;;5065908;28;20066;-65
2023/03/01 00:21:06;;;;;;;18.55;10.63;;;-3.20;99.90;;;;;;5063628;28;21046;-63
2023/03/01 00:23:34;;;;;;;19.65;9.30;;;-3.20;99.90;;;;;;5063086;28;20064;-63
2023/03/01 00:25:59;;;;;;;16.63;9.23;;;-3.30;99.90;;;;;;5057993;28;20040;-62
2023/03/01 00:28:25;;;;;;;24.45;10.57;;;-3.30;99.90;;;;;;5062749;28;20110;-62
2023/03/01 00:30:51;;;;;;;20.40;9.30;;;-3.30;99.90;;;;;;5060535;28;20044;-62
2023/03/01 00:33:16;;;;;;;15.77;9.70;;;-3.40;99.90;;;;;;5063078;28;20052;-62
2023/03/01 00:35:42;;;;;;;17.20;10.05;;;-3.40;99.90;;;;;;5060632;28;20419;-63
2023/03/01 00:38:08;;;;;;;16.98;9.75;;;-3.50;99.90;;;;;;5063310;28;20036;-62
2023/03/01 00:40:35;;;;;;;21.35;10.98;;;-3.50;99.90;;;;;;5062092;28;20500;-62
2023/03/01 00:43:02;;;;;;;17.67;9.10;;;-3.70;99.90;;;;;;5068882;28;20036;-63
2023/03/01 00:45:30;;;;;;;19.02;10.02;;;-3.70;99.90;;;;;;5061674;28;20110;-63
2023/03/01 00:47:57;;;;;;;17.85;9.80;;;-3.70;99.90;;;;;;5062353;28;20098;-63
2023/03/01 00:50:23;;;;;;;17.35;9.52;;;-3.80;99.90;;;;;;5060568;28;20544;-67
2023/03/01 00:52:52;;;;;;;15.95;8.98;;;-3.80;99.90;;;;;;5063000;28;20040;-64
2023/03/01 00:55:18;;;;;;;19.88;10.48;;;-3.80;99.90;;;;;;5060958;28;20050;-63
2023/03/01 00:57:44;;;;;;;19.65;9.80;;;-3.70;99.90;;;;;;5062220;28;20036;-63
2023/03/01 01:00:11;;;;;;;20.35;9.23;;;-3.80;99.90;;;;;;5062776;28;20043;-62
2023/03/01 01:02:37;;;;;;;18.48;10.50;;;-3.80;99.90;;;;;;5062383;28;20036;-62
2023/03/01 01:05:04;;;;;;;18.33;10.98;;;-3.70;99.90;;;;;;5061711;28;20047;-63
2023/03/01 01:07:29;;;;;;;20.55;10.57;;;-3.70;99.90;;;;;;5061342;28;20094;-62
2023/03/01 01:09:55;;;;;;;19.23;10.35;;;-3.70;99.90;;;;;;5064753;28;20068;-63
2023/03/01 01:12:21;;;;;;;29.58;9.15;;;-3.80;99.90;;;;;;5062269;28;20129;-64
2023/03/01 01:14:46;;;;;;;19.75;10.80;;;-3.80;99.90;;;;;;5062584;28;20395;-62
2023/03/01 01:17:12;;;;;;;20.27;9.85;;;-4.10;99.90;;;;;;5061258;28;20059;-64
2023/03/01 01:19:37;;;;;;;15.13;9.35;;;-4.00;99.90;;;;;;5061858;28;20040;-62
2023/03/01 01:22:03;;;;;;;20.48;10.20;;;-4.00;99.90;;;;;;5064565;28;20384;-62
2023/03/01 01:24:29;;;;;;;18.50;10.15;;;-4.10;99.90;;;;;;5062784;28;20067;-61
2023/03/01 01:26:54;;;;;;;21.17;10.13;;;-4.10;99.90;;;;;;5062124;28;20040;-62
2023/03/01 01:29:20;;;;;;;18.52;9.68;;;-4.00;99.90;;;;;;5061927;28;20044;-62
2023/03/01 01:31:46;;;;;;;19.65;9.88;;;-4.00;99.90;;;;;;5061483;28;20057;-62
2023/03/01 01:34:17;;;;;;;19.20;9.90;;;-4.10;99.90;;;;;;5061910;28;20043;-62
2023/03/01 01:36:43;;;;;;;19.17;9.40;;;-4.10;99.90;;;;;;5062270;28;20040;-63
2023/03/01 01:39:12;;;;;;;15.63;9.48;;;-4.30;99.90;;;;;;5066298;28;21337;-63
2023/03/01 01:41:40;;;;;;;19.15;10.07;;;-4.30;99.90;;;;;;5064212;28;20041;-63
2023/03/01 01:44:25;;;;;;;24.23;11.52;;;-4.30;99.90;;;;;;5065026;28;20661;-64
2023/03/01 01:47:03;;;;;;;18.98;10.40;;;-4.40;99.90;;;;;;5065973;28;20094;-64
2023/03/01 01:49:40;;;;;;;24.35;11.00;;;-4.40;99.90;;;;;;5064333;28;20067;-63
2023/03/01 01:52:13;;;;;;;15.40;9.68;;;-4.40;99.90;;;;;;5092722;28;20404;-63
2023/03/01 01:55:02;;;;;;;20.42;10.50;;;-4.30;99.90;;;;;;5061241;28;20435;-63
2023/03/01 01:57:33;;;;;;;19.80;10.52;;;-4.30;99.90;;;;;;5048739;28;20048;-62
2023/03/01 02:00:05;;;;;;;23.65;11.32;;;-4.40;99.90;;;;;;5062374;28;20036;-63
2023/03/01 02:02:31;;;;;;;21.35;10.38;;;-4.30;99.90;;;;;;5058576;28;20040;-65
2023/03/01 02:05:11;;;;;;;20.17;10.45;;;-4.40;99.90;;;;;;5061639;28;20052;-65
2023/03/01 02:07:39;;;;;;;25.25;11.75;;;-4.40;99.90;;;;;;5063436;28;20044;-64
2023/03/01 02:10:05;;;;;;;17.92;10.13;;;-4.60;99.90;;;;;;5062010;28;20036;-63
2023/03/01 02:12:32;;;;;;;16.90;10.10;;;-4.70;99.90;;;;;;5060970;28;20040;-63
2023/03/01 02:14:57;;;;;;;19.83;10.43;;;-4.60;99.90;;;;;;5059806;28;20044;-64
2023/03/01 02:17:23;;;;;;;21.52;10.98;;;-4.60;99.90;;;;;;5062323;28;20049;-63
2023/03/01 02:19:54;;;;;;;20.80;10.73;;;-4.50;99.90;;;;;;5061843;28;20089;-64
2023/03/01 02:22:31;;;;;;;21.85;11.65;;;-4.50;99.90;;;;;;5060388;28;21422;-63
2023/03/01 02:25:04;;;;;;;19.85;10.27;;;-4.50;99.90;;;;;;5061106;28;20040;-64
2023/03/01 02:27:53;;;;;;;23.98;11.85;;;-4.60;99.90;;;;;;5058554;28;21304;-63
2023/03/01 02:30:21;;;;;;;24.25;11.77;;;-4.60;99.90;;;;;;5059067;28;20094;-62
2023/03/01 02:32:48;;;;;;;21.42;10.93;;;-4.60;99.90;;;;;;5062390;28;21239;-62
2023/03/01 02:35:15;;;;;;;23.90;10.10;;;-4.60;99.90;;;;;;5059671;28;20511;-64
2023/03/01 02:37:43;;;;;;;20.55;10.77;;;-4.70;99.90;;;;;;5060211;28;20128;-65
2023/03/01 02:40:13;;;;;;;22.85;12.13;;;-4.80;99.90;;;;;;5058755;28;20040;-63
2023/03/01 02:42:55;;;;;;;23.35;11.80;;;-4.70;99.90;;;;;;5060653;28;20036;-63
2023/03/01 02:45:22;;;;;;;25.58;11.38;;;-4.70;99.90;;;;;;5059066;28;20127;-63
2023/03/01 02:47:48;;;;;;;23.75;11.27;;;-4.70;99.90;;;;;;5062881;28;20064;-64
2023/03/01 02:50:29;;;;;;;26.85;12.50;;;-4.80;99.90;;;;;;5060937;28;20033;-64
2023/03/01 02:53:10;;;;;;;28.60;13.23;;;-4.80;99.90;;;;;;5061061;28;20262;-63
2023/03/01 02:55:36;;;;;;;21.95;11.65;;;-4.90;99.90;;;;;;5060018;28;20115;-64
2023/03/01 02:58:02;;;;;;;23.48;12.60;;;-4.90;99.90;;;;;;5061750;28;20147;-63
2023/03/01 03:00:39;;;;;;;27.73;11.77;;;-4.80;99.90;;;;;;5058410;28;20052;-63
2023/03/01 03:03:06;;;;;;;22.33;12.18;;;-4.80;99.90;;;;;;5063678;28;20048;-64
2023/03/01 03:05:32;;;;;;;23.60;12.40;;;-4.80;99.90;;;;;;5059310;28;20041;-62
2023/03/01 03:07:59;;;;;;;20.63;10.98;;;-4.80;99.90;;;;;;5057964;28;20037;-62
2023/03/01 03:10:28;;;;;;;23.83;12.05;;;-4.90;99.90;;;;;;5060477;28;20040;-64
2023/03/01 03:13:03;;;;;;;25.67;13.73;;;-4.80;99.90;;;;;;5089675;28;20484;-64
2023/03/01 03:15:30;;;;;;;20.90;11.93;;;-4.70;99.90;;;;;;5056721;28;20102;-62
2023/03/01 03:17:57;;;;;;;30.00;14.10;;;-4.80;99.90;;;;;;5067564;28;20040;-62
2023/03/01 03:20:25;;;;;;;30.90;12.57;;;-4.90;99.90;;;;;;5065574;28;20040;-63
2023/03/01 03:22:53;;;;;;;26.20;12.38;;;-5.00;99.90;;;;;;5063410;28;20036;-64
2023/03/01 03:25:20;;;;;;;24.77;13.30;;;-5.00;99.90;;;;;;5062084;28;20040;-63
2023/03/01 03:27:47;;;;;;;23.60;12.85;;;-5.00;99.90;;;;;;5061160;28;20046;-63
2023/03/01 03:30:17;;;;;;;28.45;13.38;;;-5.00;99.90;;;;;;5058998;28;20080;-62
2023/03/01 03:33:03;;;;;;;21.75;11.75;;;-4.90;99.90;;;;;;5061511;28;20098;-60
2023/03/01 03:35:37;;;;;;;26.35;13.30;;;-5.10;99.90;;;;;;5058894;28;20495;-61
2023/03/01 03:38:06;;;;;;;27.67;12.35;;;-5.10;99.90;;;;;;5060135;28;20056;-61
2023/03/01 03:40:46;;;;;;;24.27;12.60;;;-5.00;99.90;;;;;;5059978;28;20052;-62
2023/03/01 03:43:15;;;;;;;23.45;12.20;;;-5.00;99.90;;;;;;5057911;28;20036;-63
2023/03/01 03:45:41;;;;;;;24.80;11.43;;;-5.00;99.90;;;;;;5059548;28;20029;-61
2023/03/01 03:48:09;;;;;;;26.17;12.82;;;-5.00;99.90;;;;;;5061906;28;20044;-62
2023/03/01 03:50:35;;;;;;;27.92;13.07;;;-5.00;99.90;;;;;;5059457;28;20120;-64
2023/03/01 03:53:03;;;;;;;28.38;13.60;;;-5.10;99.90;;;;;;5062026;28;20036;-62
2023/03/01 03:55:30;;;;;;;30.42;13.48;;;-5.20;99.90;;;;;;5061386;28;20036;-62
2023/03/01 03:58:01;;;;;;;24.85;12.57;;;-5.20;99.90;;;;;;5063340;28;20641;-63
2023/03/01 04:00:27;;;;;;;24.60;12.77;;;-5.20;99.90;;;;;;5061311;28;20037;-64
2023/03/01 04:02:56;;;;;;;25.17;13.32;;;-5.30;99.90;;;;;;5064002;28;20054;-62
2023/03/01 04:05:22;;;;;;;28.00;13.10;;;-5.30;99.90;;;;;;5061580;28;20079;-63
2023/03/01 04:07:47;;;;;;;26.15;13.05;;;-5.30;99.90;;;;;;5066077;28;20037;-61
2023/03/01 04:10:16;;;;;;;25.27;12.85;;;-5.40;99.90;;;;;;5063989;28;20039;-62
2023/03/01 04:12:43;;;;;;;29.90;12.90;;;-5.40;99.90;;;;;;5063517;28;20044;-63
2023/03/01 04:15:13;;;;;;;25.50;13.82;;;-5.40;99.90;;;;;;5064611;28;20051;-62
2023/03/01 04:17:43;;;;;;;25.83;14.18;;;-5.30;99.90;;;;;;5064949;28;20303;-64
2023/03/01 04:20:17;;;;;;;27.60;14.27;;;-5.40;99.90;;;;;;5064826;28;20036;-62
2023/03/01 04:22:46;;;;;;;27.42;13.80;;;-5.50;99.90;;;;;;5064916;28;20411;-64
2023/03/01 04:25:13;;;;;;;24.23;13.18;;;-5.40;99.90;;;;;;5064472;28;20045;-63
2023/03/01 04:27:40;;;;;;;28.80;13.82;;;-5.40;99.90;;;;;;5065114;28;20501;-64
2023/03/01 04:30:07;;;;;;;29.77;13.90;;;-5.40;99.90;;;;;;5066145;28;20040;-64
2023/03/01 04:32:33;;;;;;;25.88;13.20;;;-5.60;99.90;;;;;;5066689;28;20032;-63
2023/03/01 04:34:59;;;;;;;23.85;13.18;;;-5.50;99.90;;;;;;5063912;28;20485;-63
2023/03/01 04:37:25;;;;;;;30.25;13.60;;;-5.50;99.90;;;;;;5064000;28;20384;-65
2023/03/01 04:39:51;;;;;;;28.15;13.57;;;-5.50;99.90;;;;;;5065041;28;20039;-61
2023/03/01 04:42:16;;;;;;;26.80;13.55;;;-5.50;99.90;;;;;;5064320;28;20307;-64
2023/03/01 04:44:43;;;;;;;27.67;13.48;;;-5.60;99.90;;;;;;5065981;28;20651;-63
2023/03/01 04:47:09;;;;;;;30.40;14.50;;;-5.60;99.90;;;;;;5066637;28;20036;-64
2023/03/01 04:49:34;;;;;;;26.35;13.80;;;-5.50;99.90;;;;;;5065860;28;20508;-64
2023/03/01 04:52:01;;;;;;;28.38;14.00;;;-5.60;99.90;;;;;;5064218;28;20036;-63
2023/03/01 04:54:34;;;;;;;25.88;12.77;;;-5.50;99.90;;;;;;5063414;28;20698;-64
2023/03/01 04:57:00;;;;;;;36.03;14.90;;;-5.60;99.90;;;;;;5063137;28;20464;-63
2023/03/01 04:59:26;;;;;;;27.10;14.70;;;-5.60;99.90;;;;;;5067133;28;20128;-63
2023/03/01 05:01:55;;;;;;;29.25;14.45;;;-5.60;99.90;;;;;;5061589;28;20532;-62
2023/03/01 05:04:21;;;;;;;31.50;15.35;;;-5.60;99.90;;;;;;5060231;28;20451;-62
2023/03/01 05:06:47;;;;;;;29.92;14.15;;;-5.50;99.90;;;;;;5063935;28;20049;-62
2023/03/01 05:09:12;;;;;;;26.17;13.50;;;-5.60;99.90;;;;;;5061778;28;20044;-58
2023/03/01 05:11:38;;;;;;;27.33;14.40;;;-5.60;99.90;;;;;;5064290;28;20801;-59
2023/03/01 05:14:05;;;;;;;30.60;13.82;;;-5.50;99.90;;;;;;5063190;28;20047;-60
2023/03/01 05:16:32;;;;;;;32.63;14.65;;;-5.50;99.90;;;;;;5061391;28;20040;-61
2023/03/01 05:18:58;;;;;;;28.73;13.73;;;-5.50;99.90;;;;;;5064032;28;20186;-63
2023/03/01 05:21:24;;;;;;;30.98;14.63;;;-5.40;99.90;;;;;;5066716;28;20535;-64
2023/03/01 05:23:50;;;;;;;29.80;13.50;;;-5.50;99.90;;;;;;5068018;28;20113;-63
2023/03/01 05:26:18;;;;;;;25.20;13.30;;;-5.50;99.90;;;;;;5065334;28;20687;-64
2023/03/01 05:28:44;;;;;;;25.95;13.30;;;-5.50;99.90;;;;;;5066980;28;20386;-64
2023/03/01 05:31:10;;;;;;;30.48;13.23;;;-5.50;99.90;;;;;;5062648;28;20036;-64
2023/03/01 05:33:37;;;;;;;25.80;13.07;;;-5.60;99.90;;;;;;5063813;28;20032;-64
2023/03/01 05:36:04;;;;;;;28.50;14.25;;;-5.50;99.90;;;;;;5064545;28;20127;-66
2023/03/01 05:38:30;;;;;;;29.98;13.55;;;-5.50;99.90;;;;;;5063628;28;20068;-63
2023/03/01 05:40:55;;;;;;;30.73;14.27;;;-5.60;99.90;;;;;;5061749;28;20444;-63
2023/03/01 05:43:21;;;;;;;28.17;14.38;;;-5.50;99.90;;;;;;5064534;28;20045;-64
2023/03/01 05:45:47;;;;;;;26.65;12.77;;;-5.50;99.90;;;;;;5061232;28;20032;-64
2023/03/01 05:48:13;;;;;;;28.08;13.63;;;-5.40;99.90;;;;;;5061123;28;20040;-60
2023/03/01 05:50:43;;;;;;;32.90;13.63;;;-5.40;99.90;;;;;;5059664;28;20107;-64
2023/03/01 05:53:12;;;;;;;30.42;13.48;;;-5.30;99.90;;;;;;5062587;28;20040;-61
2023/03/01 05:55:39;;;;;;;30.42;13.88;;;-5.40;99.90;;;;;;5060999;28;20044;-64
2023/03/01 05:58:09;;;;;;;32.40;14.75;;;-5.60;99.90;;;;;;5061318;28;20450;-63
2023/03/01 06:00:34;;;;;;;32.25;14.70;;;-5.50;99.90;;;;;;5059711;28;20098;-64
2023/03/01 06:03:00;;;;;;;26.60;13.82;;;-5.70;99.90;;;;;;5062095;28;20040;-62
2023/03/01 06:05:27;;;;;;;29.58;15.30;;;-5.60;99.90;;;;;;5060183;28;20061;-64
2023/03/01 06:07:53;;;;;;;26.98;13.63;;;-5.60;99.90;;;;;;5063416;28;20048;-63
2023/03/01 06:10:21;;;;;;;30.10;14.20;;;-5.50;99.90;;;;;;5062118;28;20040;-63
2023/03/01 06:12:47;;;;;;;30.30;13.70;;;-5.60;99.90;;;;;;5065045;28;20039;-65
2023/03/01 06:15:15;;;;;;;25.55;13.52;;;-5.50;99.90;;;;;;5059594;28;21160;-64
2023/03/01 06:17:42;;;;;;;27.27;14.32;;;-5.40;99.90;;;;;;5059394;28;20056;-66
2023/03/01 06:20:14;;;;;;;33.85;12.95;;;-5.40;99.90;;;;;;5061351;28;20045;-64
2023/03/01 06:22:40;;;;;;;26.15;13.18;;;-5.40;99.90;;;;;;5062801;28;20039;-62
2023/03/01 06:25:07;;;;;;;28.17;14.18;;;-5.40;99.90;;;;;;5061737;28;20507;-63
2023/03/01 06:27:33;;;;;;;30.50;14.75;;;-5.50;99.90;;;;;;5060786;28;20108;-64
2023/03/01 06:29:58;;;;;;;24.15;12.80;;;-5.40;99.90;;;;;;5061082;28;20135;-62
2023/03/01 06:32:24;;;;;;;33.75;15.18;;;-5.40;99.90;;;;;;5059320;28;20128;-61
2023/03/01 06:34:50;;;;;;;26.75;13.27;;;-5.50;99.90;;;;;;5058442;28;20039;-61
2023/03/01 06:37:15;;;;;;;26.63;13.30;;;-5.50;99.90;;;;;;5061853;28;20143;-67
2023/03/01 06:39:41;;;;;;;26.58;14.05;;;-5.50;99.90;;;;;;5059700;28;20095;-62
2023/03/01 06:42:09;;;;;;;31.02;14.38;;;-5.50;99.90;;;;;;5059833;28;20052;-64
2023/03/01 06:44:35;;;;;;;26.27;12.80;;;-5.40;99.90;;;;;;5060818;28;20119;-64
2023/03/01 06:47:01;;;;;;;23.48;12.88;;;-5.20;99.90;;;;;;5062821;28;20093;-65
2023/03/01 06:49:27;;;;;;;30.05;13.13;;;-5.20;99.90;;;;;;5063169;28;20049;-63
2023/03/01 06:51:53;;;;;;;31.95;15.32;;;-5.10;99.90;;;;;;5060235;28;20815;-65
2023/03/01 06:54:21;;;;;;;24.08;12.45;;;-5.00;99.90;;;;;;5060438;28;20137;-66
2023/03/01 06:56:48;;;;;;;25.10;12.40;;;-5.00;99.90;;;;;;5060165;28;20032;-64
2023/03/01 06:59:14;;;;;;;23.50;11.48;;;-4.50;99.90;;;;;;5059041;28;20697;-64
2023/03/01 07:01:39;;;;;;;21.63;10.98;;;-3.80;99.90;;;;;;5058725;28;20048;-64
2023/03/01 07:04:05;;;;;;;21.13;10.55;;;-3.50;99.90;;;;;;5059689;28;20036;-64
2023/03/01 07:06:31;;;;;;;17.75;11.23;;;-3.00;99.90;;;;;;5060361;28;20117;-64
2023/03/01 07:08:56;;;;;;;20.77;10.63;;;-2.50;99.90;;;;;;5061022;28;20086;-64
2023/03/01 07:11:23;;;;;;;18.27;10.55;;;-2.10;99.90;;;;;;5059947;28;20067;-64
2023/03/01 07:13:48;;;;;;;21.58;10.88;;;-1.80;99.90;;;;;;5061257;28;20751;-63
2023/03/01 07:16:14;;;;;;;22.50;11.38;;;-1.60;99.90;;;;;;5060744;28;20085;-64
2023/03/01 07:18:40;;;;;;;18.75;9.98;;;-1.40;99.90;;;;;;5061258;28;20412;-63
2023/03/01 07:21:07;;;;;;;21.77;11.75;;;-0.80;99.90;;;;;;5057047;28;20041;-61
2023/03/01 07:23:33;;;;;;;24.23;12.95;;;-0.70;99.90;;;;;;5059287;28;20518;-56
2023/03/01 07:26:00;;;;;;;15.85;8.63;;;-0.40;99.90;;;;;;5060236;28;20052;-61
2023/03/01 07:28:26;;;;;;;16.13;8.68;;;-0.40;99.90;;;;;;5064611;28;20083;-63
2023/03/01 07:30:51;;;;;;;14.57;9.05;;;-0.20;99.90;;;;;;5062894;28;20040;-62
2023/03/01 07:33:17;;;;;;;14.95;8.18;;;0.20;99.90;;;;;;5064504;28;20037;-62
2023/03/01 07:35:43;;;;;;;18.08;9.70;;;0.20;99.90;;;;;;5063537;28;20035;-63
2023/03/01 07:38:08;;;;;;;16.83;8.15;;;0.30;99.90;;;;;;5064950;28;20041;-62
2023/03/01 07:40:35;;;;;;;15.90;8.10;;;0.50;99.90;;;;;;5060044;28;20074;-63
2023/03/01 07:43:01;;;;;;;19.98;12.52;;;0.60;99.90;;;;;;5062573;28;20123;-61
2023/03/01 07:45:27;;;;;;;15.35;8.18;;;0.50;99.90;;;;;;5062493;28;20072;-61
2023/03/01 07:47:54;;;;;;;14.80;7.53;;;0.10;99.90;;;;;;5063709;28;20064;-64
2023/03/01 07:50:20;;;;;;;16.77;6.80;;;0.00;99.90;;;;;;5064754;28;20096;-61
2023/03/01 07:52:47;;;;;;;12.90;6.93;;;0.20;99.90;;;;;;5061725;28;20040;-63
2023/03/01 07:55:14;;;;;;;15.25;7.53;;;0.00;99.90;;;;;;5063036;28;20062;-64
2023/03/01 07:57:40;;;;;;;15.90;7.55;;;0.00;99.90;;;;;;5060823;28;20181;-61
2023/03/01 08:00:07;;;;;;;13.65;7.18;;;0.40;99.90;;;;;;5064704;28;20123;-62
2023/03/01 08:02:33;;;;;;;12.45;6.28;;;0.70;99.90;;;;;;5063457;28;20047;-62
2023/03/01 08:04:58;;;;;;;14.57;6.57;;;0.80;99.90;;;;;;5063631;28;20037;-62
2023/03/01 08:07:24;;;;;;;13.50;6.70;;;1.10;99.90;;;;;;5061721;28;20071;-63
2023/03/01 08:09:49;;;;;;;12.90;6.57;;;1.50;99.90;;;;;;5063672;28;20170;-62
2023/03/01 08:12:16;;;;;;;15.57;6.93;;;1.60;99.90;;;;;;5065581;28;20643;-63
2023/03/01 08:14:42;;;;;;;13.52;7.40;;;1.80;99.90;;;;;;5064751;28;20052;-64
2023/03/01 08:17:08;;;;;;;12.18;6.43;;;1.70;99.90;;;;;;5064262;28;20385;-62
2023/03/01 08:19:34;;;;;;;14.60;7.15;;;1.60;99.90;;;;;;5066218;28;20051;-63
2023/03/01 08:22:01;;;;;;;18.15;7.15;;;1.80;99.70;;;;;;5065011;28;20041;-63
2023/03/01 08:24:27;;;;;;;13.40;6.68;;;2.00;99.70;;;;;;5064812;28;20042;-63
2023/03/01 08:26:53;;;;;;;15.15;7.20;;;1.60;99.10;;;;;;5064353;28;20675;-61
2023/03/01 08:29:19;;;;;;;17.25;7.22;;;1.30;99.90;;;;;;5065164;28;20037;-64
2023/03/01 08:31:44;;;;;;;16.70;7.15;;;0.90;99.90;;;;;;5064931;28;20625;-63
2023/03/01 08:34:12;;;;;;;14.55;7.57;;;0.50;99.90;;;;;;5062158;28;20068;-62
2023/03/01 08:36:41;;;;;;;12.98;7.38;;;0.20;99.90;;;;;;5062732;28;20415;-63
2023/03/01 08:39:09;;;;;;;17.35;7.35;;;0.00;99.90;;;;;;5062861;28;20049;-62
2023/03/01 08:41:35;;;;;;;21.80;7.72;;;-0.20;99.90;;;;;;5063295;28;20182;-61
2023/03/01 08:44:01;;;;;;;15.27;7.78;;;-0.20;99.90;;;;;;5063318;28;20048;-63
2023/03/01 08:46:32;;;;;;;16.27;7.05;;;-0.20;99.90;;;;;;5063510;28;20151;-64
2023/03/01 08:48:59;;;;;;;16.70;8.05;;;-0.30;99.90;;;;;;5062865;28;20055;-62
2023/03/01 08:51:25;;;;;;;12.70;7.65;;;-0.20;99.90;;;;;;5062773;28;20449;-63
2023/03/01 08:53:51;;;;;;;19.27;8.40;;;-0.30;99.90;;;;;;5063363;28;20094;-62
2023/03/01 08:56:18;;;;;;;17.00;7.93;;;-0.20;99.90;;;;;;5061307;28;20044;-61
2023/03/01 08:58:45;;;;;;;19.38;8.38;;;-0.10;99.90;;;;;;5063868;28;20029;-62
2023/03/01 09:01:13;;;;;;;16.15;7.97;;;-0.20;99.90;;;;;;5064139;28;20092;-62
2023/03/01 09:03:39;;;;;;;17.20;8.10;;;-0.10;99.90;;;;;;5063446;28;20040;-63
2023/03/01 09:06:07;;;;;;;18.63;8.80;;;0.00;99.90;;;;;;5062982;28;20097;-63
2023/03/01 09:08:44;;;;;;;18.27;8.02;;;0.20;99.90;;;;;;5063112;28;20053;-62
2023/03/01 09:11:11;;;;;;;16.40;8.57;;;0.20;99.90;;;;;;5061727;28;20055;-61
2023/03/01 09:13:37;;;;;;;14.75;7.45;;;0.20;99.90;;;;;;5064458;28;20443;-62
2023/03/01 09:16:06;;;;;;;19.75;8.48;;;0.30;99.90;;;;;;5063543;28;20063;-64
2023/03/01 09:18:33;;;;;;;16.38;8.32;;;0.20;99.90;;;;;;5065222;28;20047;-63
2023/03/01 09:21:17;;;;;;;20.08;7.57;;;0.30;99.90;;;;;;5064415;28;20044;-64
2023/03/01 09:23:45;;;;;;;15.93;8.18;;;0.20;99.90;;;;;;5065938;28;20775;-61
2023/03/01 09:26:19;;;;;;;14.80;7.70;;;0.20;99.90;;;;;;5068965;28;20037;-64
2023/03/01 09:28:45;;;;;;;14.60;7.80;;;0.40;99.90;;;;;;5067957;28;20045;-63
2023/03/01 09:31:12;;;;;;;15.90;7.82;;;0.60;99.90;;;;;;5064269;28;20033;-64
2023/03/01 09:33:39;;;;;;;17.95;8.68;;;0.70;99.90;;;;;;5064745;28;20082;-64
2023/03/01 09:36:07;;;;;;;20.73;8.32;;;0.80;99.90;;;;;;5065266;28;20036;-64
2023/03/01 09:38:33;;;;;;;26.38;8.73;;;0.70;99.90;;;;;;5063746;28;20119;-63
2023/03/01 09:41:00;;;;;;;15.43;8.68;;;0.90;99.90;;;;;;5066167;28;20572;-64
2023/03/01 09:43:53;;;;;;;16.55;8.27;;;0.80;99.90;;;;;;5065829;28;20052;-63
2023/03/01 09:46:22;;;;;;;18.50;8.88;;;1.00;99.90;;;;;;5065056;28;20035;-63
2023/03/01 09:48:51;;;;;;;16.77;9.15;;;0.90;99.90;;;;;;5064266;28;20082;-64
2023/03/01 09:51:32;;;;;;;17.05;8.80;;;0.90;99.90;;;;;;5088192;28;20039;-60
2023/03/01 09:53:58;;;;;;;16.98;8.18;;;1.00;99.90;;;;;;5063541;28;20044;-63
2023/03/01 09:56:37;;;;;;;19.13;8.35;;;0.80;99.90;;;;;;5061785;28;20049;-65
2023/03/01 09:59:44;;;;;;;14.93;8.07;;;0.70;99.90;;;;;;5060030;28;20442;-65
2023/03/01 10:02:23;;;;;;;16.40;8.68;;;0.90;99.90;;;;;;5059728;28;20496;-64
2023/03/01 10:04:55;;;;;;;15.85;8.35;;;0.80;99.90;;;;;;5063092;28;20047;-63
2023/03/01 10:07:47;;;;;;;16.80;7.72;;;0.80;99.90;;;;;;5060365;28;20036;-64
2023/03/01 10:10:37;;;;;;;18.45;8.93;;;1.10;99.90;;;;;;5058559;28;20044;-64
2023/03/01 10:13:25;;;;;;;15.13;8.23;;;1.20;99.90;;;;;;5060345;28;20090;-64
2023/03/01 10:15:55;;;;;;;16.50;8.05;;;1.30;99.90;;;;;;5060716;28;20036;-65
2023/03/01 10:18:29;;;;;;;16.23;8.15;;;1.10;99.90;;;;;;5059976;28;20106;-62
2023/03/01 10:21:09;;;;;;;16.85;8.00;;;1.20;99.90;;;;;;5059825;28;20594;-63
2023/03/01 10:23:36;;;;;;;16.13;8.02;;;1.10;99.90;;;;;;5060754;28;20102;-65
2023/03/01 10:26:04;;;;;;;14.75;7.97;;;1.20;99.90;;;;;;5061629;28;20040;-65
2023/03/01 10:28:46;;;;;;;15.15;8.38;;;1.30;99.90;;;;;;5060451;28;20710;-65
2023/03/01 10:31:17;;;;;;;19.20;8.77;;;1.60;99.90;;;;;;5059757;28;20455;-64
2023/03/01 10:33:42;;;;;;;17.33;7.80;;;1.60;99.90;;;;;;5060830;28;20496;-63
2023/03/01 10:36:08;;;;;;;16.02;8.55;;;1.60;99.90;;;;;;5060841;28;20094;-65
2023/03/01 10:38:52;;;;;;;15.95;7.68;;;1.60;99.90;;;;;;5061893;28;20448;-65
2023/03/01 10:41:18;;;;;;;15.73;8.55;;;1.50;99.90;;;;;;5056004;28;20147;-63
2023/03/01 10:43:50;;;;;;;15.45;8.52;;;1.50;99.90;;;;;;5058758;28;20032;-63
2023/03/01 10:46:33;;;;;;;24.83;8.82;;;1.30;99.90;;;;;;5058326;28;20124;-64
2023/03/01 10:49:15;;;;;;;18.67;8.13;;;1.40;99.90;;;;;;5060132;28;20036;-63
2023/03/01 10:51:43;;;;;;;14.75;7.70;;;1.50;99.90;;;;;;5060894;28;20399;-64
2023/03/01 10:54:31;;;;;;;14.25;7.82;;;1.50;99.90;;;;;;5063997;28;20044;-63
2023/03/01 10:57:02;;;;;;;14.02;8.05;;;1.60;99.90;;;;;;5059904;28;20048;-64
2023/03/01 10:59:31;;;;;;;15.60;7.85;;;1.90;99.90;;;;;;5061888;28;20037;-65
2023/03/01 11:02:25;;;;;;;15.07;8.13;;;2.10;99.90;;;;;;5057710;28;20044;-65
2023/03/01 11:05:16;;;;;;;14.30;8.00;;;2.20;99.90;;;;;;5061508;28;20047;-64
2023/03/01 11:07:51;;;;;;;17.27;8.40;;;1.90;99.80;;;;;;5060041;28;20043;-65
2023/03/01 11:10:27;;;;;;;18.42;8.07;;;1.90;99.90;;;;;;5060453;28;20045;-64
2023/03/01 11:12:54;;;;;;;18.33;8.13;;;2.10;99.90;;;;;;5062123;28;20045;-63
2023/03/01 11:15:28;;;;;;;17.25;7.80;;;2.20;99.90;;;;;;5061212;28;20037;-65
2023/03/01 11:17:55;;;;;;;15.60;7.65;;;2.50;99.90;;;;;;5091498;28;20082;-62
2023/03/01 11:20:29;;;;;;;13.85;8.23;;;2.60;99.90;;;;;;5061387;28;20560;-64
2023/03/01 11:22:59;;;;;;;14.23;7.72;;;2.40;98.40;;;;;;5063869;28;20045;-64
2023/03/01 11:25:35;;;;;;;15.38;8.25;;;2.20;98.30;;;;;;5056200;28;20041;-64
2023/03/01 11:28:04;;;;;;;18.33;8.50;;;2.20;98.20;;;;;;5058779;28;20049;-62
2023/03/01 11:30:38;;;;;;;15.13;7.57;;;2.10;99.80;;;;;;5058471;28;20041;-64
2023/03/01 11:33:23;;;;;;;13.80;8.13;;;2.00;99.80;;;;;;5061059;28;20048;-63
2023/03/01 11:36:06;;;;;;;14.95;7.82;;;2.10;99.90;;;;;;5058645;28;20033;-64
2023/03/01 11:38:35;;;;;;;18.10;8.48;;;2.00;99.70;;;;;;5075616;28;20086;-64
2023/03/01 11:41:11;;;;;;;12.90;7.38;;;2.10;99.90;;;;;;5058864;28;20090;-64
2023/03/01 11:43:42;;;;;;;16.40;7.85;;;2.20;99.90;;;;;;5060370;28;20041;-63
2023/03/01 11:46:32;;;;;;;19.63;8.10;;;2.30;99.90;;;;;;5061087;28;20056;-64
2023/03/01 11:49:10;;;;;;;15.43;7.25;;;2.30;99.70;;;;;;5061797;28;20029;-63
2023/03/01 11:51:39;;;;;;;15.40;7.97;;;2.50;99.00;;;;;;5061548;28;20044;-64
2023/03/01 11:54:45;;;;;;;14.98;8.02;;;2.40;98.50;;;;;;5061872;28;20505;-64
2023/03/01 11:57:36;;;;;;;14.57;8.18;;;2.50;99.00;;;;;;5060879;28;20055;-64
2023/03/01 12:00:20;;;;;;;11.88;7.25;;;2.60;98.90;;;;;;5063498;28;20044;-64
2023/03/01 12:03:06;;;;;;;16.20;7.72;;;2.50;97.70;;;;;;5060173;28;20068;-63
2023/03/01 12:05:50;;;;;;;13.70;7.70;;;2.50;97.90;;;;;;5059013;28;20044;-64
2023/03/01 12:08:54;;;;;;;16.90;8.15;;;2.60;97.50;;;;;;5062051;28;20048;-64
2023/03/01 12:11:42;;;;;;;15.30;7.90;;;2.50;97.70;;;;;;5061179;28;20040;-64
2023/03/01 12:14:29;;;;;;;13.23;7.80;;;2.40;98.10;;;;;;5061838;28;20072;-65
2023/03/01 12:17:19;;;;;;;18.60;8.02;;;2.40;98.50;;;;;;5066732;28;20045;-64
2023/03/01 12:19:45;;;;;;;16.58;8.07;;;2.30;98.70;;;;;;5064846;28;20129;-63
2023/03/01 12:22:30;;;;;;;16.63;8.35;;;2.40;99.20;;;;;;5064515;28;20846;-63
2023/03/01 12:25:15;;;;;;;15.73;8.45;;;2.50;98.90;;;;;;5064839;28;20037;-63
2023/03/01 12:28:04;;;;;;;16.50;9.13;;;2.50;99.00;;;;;;5064525;28;20177;-63
2023/03/01 12:30:50;;;;;;;15.07;8.82;;;2.50;98.70;;;;;;5062444;28;20184;-65
2023/03/01 12:33:37;;;;;;;20.92;11.25;;;2.60;99.00;;;;;;5063042;28;20067;-63
2023/03/01 12:36:36;;;;;;;16.00;8.23;;;2.60;99.40;;;;;;5062766;28;20052;-64
2023/03/01 12:39:37;;;;;;;16.65;7.47;;;2.50;99.00;;;;;;5064200;28;20127;-63
2023/03/01 12:42:34;;;;;;;13.30;7.68;;;2.60;99.10;;;;;;5063176;28;20040;-63
2023/03/01 12:45:12;;;;;;;14.15;8.23;;;2.60;99.40;;;;;;5064700;28;20758;-62
2023/03/01 12:48:04;;;;;;;23.27;11.85;;;2.50;98.40;;;;;;5066404;28;20048;-64
2023/03/01 12:50:51;;;;;;;19.75;9.23;;;2.60;98.80;;;;;;5065158;28;20047;-62
2023/03/01 12:53:26;;;;;;;42.92;18.63;;;2.60;99.00;;;;;;5061467;28;20090;-66